Time;durP1;ratioP1;P1;durP2;ratioP2;P2;SDS_P1;SDS_P2;PMS_P1;PMS_P2;Temp;Humidity;BMP_temperature;BMP_pressure;BME280_temperature;BME280_humidity;BME280_pressure;Samples;Min_cycle;Max_cycle;Signal;HPM_P1;HPM_P2
2023/12/10 00:01:36;;;;;;;;;79.67;58.33;;;;;0.85;100.00;99305.16;6312893;20;3641945;-51
2023/12/10 00:04:05;;;;;;;;;69.00;54.00;;;;;0.56;100.00;99294.53;6311412;20;2876335;-51
2023/12/10 00:06:35;;;;;;;;;76.00;56.00;;;;;0.69;100.00;99287.13;6312141;20;2883736;-50
2023/12/10 00:09:05;;;;;;;;;75.67;52.67;;;;;0.66;100.00;99277.53;6313185;20;2893314;-47
2023/12/10 00:11:35;;;;;;;;;77.00;58.67;;;;;0.64;100.00;99274.06;6311439;20;2882764;-49
2023/12/10 00:14:03;;;;;;;;;69.00;50.00;;;;;0.63;100.00;99289.03;6309532;20;2591952;-49
2023/12/10 00:16:31;;;;;;;;;70.00;50.00;;;;;0.62;100.00;99289.94;6275954;20;2493003;-50
2023/12/10 00:19:01;;;;;;;;;76.00;52.67;;;;;0.78;100.00;99293.00;6280743;20;3639961;-52
2023/12/10 00:21:31;;;;;;;;;77.67;56.00;;;;;0.66;100.00;99303.94;6315083;20;2882773;-51
2023/12/10 00:24:00;;;;;;;;;69.00;54.50;;;;;0.57;100.00;99307.69;6314445;20;2874356;-49
2023/12/10 00:26:29;;;;;;;;;71.67;50.67;;;;;0.64;100.00;99303.97;6280710;20;2877480;-50
2023/12/10 00:28:59;;;;;;;;;77.00;53.33;;;;;0.39;100.00;99295.81;6311865;20;3630541;-51
2023/12/10 00:31:29;;;;;;;;;84.33;63.00;;;;;0.62;100.00;99297.00;6312494;20;3650353;-52
2023/12/10 00:33:59;;;;;;;;;74.67;52.33;;;;;1.29;100.00;99305.66;6313083;20;2894126;-50
2023/12/10 00:36:28;;;;;;;;;69.67;54.00;;;;;0.81;100.00;99306.13;6311157;20;2869116;-49
2023/12/10 00:38:59;;;;;;;;;74.67;56.67;;;;;0.62;100.00;99297.84;6311498;20;3639902;-47
2023/12/10 00:41:29;;;;;;;;;76.33;56.00;;;;;0.62;100.00;99292.56;6312921;20;2882628;-48
2023/12/10 00:43:58;;;;;;;;;70.00;53.00;;;;;0.75;100.00;99286.97;6311529;20;2860720;-53
2023/12/10 00:46:27;;;;;;;;;65.50;49.50;;;;;1.02;100.00;99278.22;6282567;20;2870523;-52
2023/12/10 00:48:56;;;;;;;;;71.00;50.50;;;;;0.86;100.00;99275.16;6279972;20;2873308;-50
2023/12/10 00:51:25;;;;;;;;;69.00;49.00;;;;;0.69;100.00;99266.00;6278795;20;2877354;-50
2023/12/10 00:53:54;;;;;;;;;72.50;52.50;;;;;0.89;100.00;99268.91;6279315;20;2885785;-50
2023/12/10 00:56:24;;;;;;;;;73.67;53.00;;;;;0.73;100.00;99270.28;6281548;20;2894163;-51
2023/12/10 00:58:54;;;;;;;;;65.67;47.00;;;;;0.67;100.00;99267.81;6313158;20;2873284;-50
2023/12/10 01:01:23;;;;;;;;;64.33;45.00;;;;;0.96;100.00;99277.56;6310548;20;2866010;-49
2023/12/10 01:03:52;;;;;;;;;62.50;48.50;;;;;1.12;100.00;99280.59;6309870;20;2860703;-49
2023/12/10 01:06:21;;;;;;;;;67.50;49.50;;;;;0.82;100.00;99293.81;6281619;20;2859747;-49
2023/12/10 01:08:50;;;;;;;;;63.50;47.00;;;;;1.20;100.00;99302.41;6281514;20;2864000;-52
2023/12/10 01:11:19;;;;;;;;;66.00;47.50;;;;;1.20;100.00;99299.75;6281387;20;2880529;-50
2023/12/10 01:13:47;;;;;;;;;62.00;45.00;;;;;0.75;100.00;99287.81;6276062;20;2484765;-47
2023/12/10 01:16:16;;;;;;;;;65.50;47.50;;;;;0.93;100.00;99277.66;6279240;20;2873190;-51
2023/12/10 01:18:47;;;;;;;;;69.67;48.33;;;;;0.96;100.00;99274.91;6281871;20;2870095;-50
2023/12/10 01:21:18;;;;;;;;;64.33;44.67;;;;;0.89;100.00;99268.91;6312137;20;2876403;-53
2023/12/10 01:23:50;;;;;;;;;70.33;52.00;;;;;0.97;100.00;99255.47;6312975;20;3630443;-50
2023/12/10 01:26:20;;;;;;;;;69.50;56.00;;;;;1.07;100.00;99241.09;6311649;20;2870097;-50
2023/12/10 01:28:51;;;;;;;;;68.00;49.00;;;;;1.08;100.00;99248.13;6280675;20;2864862;-52
2023/12/10 01:31:19;;;;;;;;;70.00;50.00;;;;;1.05;100.00;99251.72;6280055;20;2870067;-50
2023/12/10 01:33:49;;;;;;;;;59.00;41.33;;;;;1.30;100.00;99258.91;6279077;20;3623239;-49
2023/12/10 01:36:26;;;;;;;;;74.00;49.00;;;;;1.14;100.00;99252.34;6312087;20;3637780;-48
2023/12/10 01:38:56;;;;;;;;;66.33;48.00;;;;;0.75;100.00;99240.25;6312235;20;2871346;-53
2023/12/10 01:41:25;;;;;;;;;60.50;45.00;;;;;1.39;100.00;99234.78;6311942;20;2863894;-49
2023/12/10 01:43:54;;;;;;;;;63.00;45.00;;;;;0.74;100.00;99227.97;6281122;20;2861780;-47
2023/12/10 01:46:22;;;;;;;;;61.00;44.50;;;;;0.89;100.00;99226.63;6275631;20;2492958;-47
2023/12/10 01:48:55;;;;;;;;;67.67;47.67;;;;;1.19;100.00;99234.56;6278883;20;2875372;-47
2023/12/10 01:51:25;;;;;;;;;62.33;43.33;;;;;0.56;100.00;99234.66;6309976;20;2876439;-48
2023/12/10 01:53:55;;;;;;;;;68.67;51.67;;;;;0.87;100.00;99226.69;6310938;20;2886854;-47
2023/12/10 01:56:26;;;;;;;;;61.50;43.00;;;;;0.91;100.00;99224.81;6307663;20;2870166;-52
2023/12/10 01:58:56;;;;;;;;;61.33;43.00;;;;;1.27;100.00;99227.25;6277043;20;2871138;-49
2023/12/10 02:01:26;;;;;;;;;69.00;47.50;;;;;0.93;100.00;99217.72;6310016;20;2881582;-50
2023/12/10 02:03:55;;;;;;;;;71.67;53.00;;;;;0.72;100.00;99210.44;6280394;20;2874389;-49
2023/12/10 02:06:25;;;;;;;;;60.00;45.00;;;;;1.06;100.00;99197.94;6308206;20;2862893;-55
2023/12/10 02:08:55;;;;;;;;;69.33;49.33;;;;;0.76;100.00;99180.34;6308582;20;2863850;-48
2023/12/10 02:11:25;;;;;;;;;57.33;39.67;;;;;1.22;100.00;99184.22;6311586;20;2883824;-48
2023/12/10 02:13:55;;;;;;;;;67.67;45.33;;;;;0.93;100.00;99191.28;6311425;20;2883758;-51
2023/12/10 02:16:25;;;;;;;;;66.67;45.67;;;;;1.35;100.00;99209.38;6308182;20;2887922;-53
2023/12/10 02:18:54;;;;;;;;;55.50;44.00;;;;;1.31;100.00;99203.28;6310334;20;2857787;-48
2023/12/10 02:21:22;;;;;;;;;62.00;47.50;;;;;1.04;100.00;99194.47;6274777;20;2500279;-48
2023/12/10 02:24:05;;;;;;;;;71.00;52.50;;;;;1.28;100.00;99186.69;6278252;20;2868009;-50
2023/12/10 02:26:35;;;;;;;;;71.67;49.00;;;;;1.56;100.00;99191.09;6277827;20;2880126;-49
2023/12/10 02:29:05;;;;;;;;;69.67;51.33;;;;;1.41;100.00;99182.72;6308849;20;2879636;-52
2023/12/10 02:31:34;;;;;;;;;71.00;51.00;;;;;1.11;100.00;99179.28;6309172;20;2876400;-49
2023/12/10 02:34:03;;;;;;;;;70.33;49.33;;;;;0.81;100.00;99170.50;6278620;20;2882551;-48
2023/12/10 02:36:33;;;;;;;;;63.67;44.00;;;;;1.13;100.00;99166.88;6309077;20;2875247;-49
2023/12/10 02:39:04;;;;;;;;;64.33;45.33;;;;;0.77;100.00;99166.25;6308161;20;2877396;-50
2023/12/10 02:41:33;;;;;;;;;67.00;48.67;;;;;1.06;100.00;99155.63;6311920;20;2885713;-48
2023/12/10 02:44:03;;;;;;;;;61.33;44.00;;;;;0.99;100.00;99155.88;6309606;20;3629374;-52
2023/12/10 02:46:32;;;;;;;;;63.50;48.00;;;;;1.02;100.00;99156.63;6310156;20;2879525;-50
2023/12/10 02:49:00;;;;;;;;;59.00;45.00;;;;;1.05;100.00;99156.56;6275474;20;2875358;-52
2023/12/10 02:51:30;;;;;;;;;82.33;53.00;;;;;0.91;100.00;99157.88;6278233;20;3655463;-49
2023/12/10 02:54:00;;;;;;;;;64.00;44.67;;;;;1.51;100.00;99156.84;6308383;20;2874240;-49
2023/12/10 02:56:29;;;;;;;;;61.00;45.50;;;;;1.26;100.00;99156.75;6307592;20;2861747;-50
2023/12/10 02:58:59;;;;;;;;;69.00;47.67;;;;;1.22;100.00;99155.16;6279082;20;2898260;-50
2023/12/10 03:01:29;;;;;;;;;70.33;47.67;;;;;0.99;100.00;99148.81;6315398;20;2881701;-54
2023/12/10 03:03:58;;;;;;;;;71.50;49.50;;;;;0.76;100.00;99135.44;6315340;20;2887798;-47
2023/12/10 03:06:27;;;;;;;;;58.50;45.00;;;;;0.86;100.00;99137.75;6283183;20;2856632;-48
2023/12/10 03:08:56;;;;;;;;;64.00;46.00;;;;;1.14;100.00;99130.75;6282327;20;2760780;-49
2023/12/10 03:11:25;;;;;;;;;62.33;44.00;;;;;1.05;100.00;99131.88;6315035;20;2878473;-51
2023/12/10 03:13:53;;;;;;;;;67.50;50.50;;;;;0.95;100.00;99114.56;6306879;20;2497232;-50
2023/12/10 03:16:22;;;;;;;;;68.00;51.50;;;;;0.92;100.00;99112.91;6280863;20;2872187;-50
2023/12/10 03:18:54;;;;;;;;;66.00;47.50;;;;;0.86;100.00;99110.47;6280346;20;2861808;-53
2023/12/10 03:21:23;;;;;;;;;59.00;44.00;;;;;0.87;100.00;99106.91;6283341;20;2860660;-50
2023/12/10 03:23:53;;;;;;;;;66.33;48.33;;;;;1.15;100.00;99101.59;6281724;20;2875336;-50
2023/12/10 03:26:23;;;;;;;;;65.67;45.00;;;;;0.91;100.00;99119.09;6314935;20;3631507;-48
2023/12/10 03:28:52;;;;;;;;;59.00;45.00;;;;;1.14;100.00;99125.44;6315012;20;2873232;-48
2023/12/10 03:31:20;;;;;;;;;65.50;45.00;;;;;1.24;100.00;99126.88;6282168;20;2876369;-52
2023/12/10 03:33:50;;;;;;;;;64.50;44.00;;;;;1.51;100.00;99119.81;6283067;20;2871116;-49
2023/12/10 03:36:22;;;;;;;;;67.00;46.67;;;;;1.19;100.00;99113.81;6279541;20;3634637;-52
2023/12/10 03:38:51;;;;;;;;;68.00;48.00;;;;;0.94;100.00;99103.16;6311260;20;2878401;-49
2023/12/10 03:41:20;;;;;;;;;54.50;41.00;;;;;0.93;100.00;99090.84;6284600;20;2867989;-41
2023/12/10 03:43:49;;;;;;;;;62.00;48.50;;;;;0.74;100.00;99074.72;6283035;20;2871130;-41
2023/12/10 03:46:17;;;;;;;;;56.50;44.50;;;;;0.84;100.00;99077.91;6283312;20;2862765;-41
2023/12/10 03:48:46;;;;;;;;;64.00;48.00;;;;;0.93;100.00;99085.56;6279896;20;2876457;-41
2023/12/10 03:51:16;;;;;;;;;59.67;36.67;;;;;0.82;100.00;99083.28;6282742;20;2890000;-41
2023/12/10 03:53:45;;;;;;;;;66.00;48.00;;;;;1.23;100.00;99103.97;6313528;20;2851371;-41
2023/12/10 03:56:14;;;;;;;;;52.00;44.00;;;;;1.07;100.00;99093.06;6278377;20;2843998;-40
2023/12/10 03:58:43;;;;;;;;;63.00;46.00;;;;;1.00;100.00;99102.09;6282798;20;2878359;-41
2023/12/10 04:01:11;;;;;;;;;68.00;48.33;;;;;0.87;100.00;99096.34;6280158;20;2852360;-41
2023/12/10 04:03:41;;;;;;;;;64.00;46.00;;;;;1.04;100.00;99090.50;6315640;20;2851348;-41
2023/12/10 04:06:10;;;;;;;;;64.00;46.50;;;;;0.80;100.00;99084.25;6279472;20;2858599;-40
2023/12/10 04:08:40;;;;;;;;;179.67;152.00;;;;;0.70;100.00;99080.16;6282262;20;3712879;-41
2023/12/10 04:11:08;;;;;;;;;66.00;53.00;;;;;0.92;100.00;99089.09;6277039;20;2488564;-41
2023/12/10 04:13:38;;;;;;;;;78.67;56.00;;;;;1.20;100.00;99088.22;6281051;20;3649256;-41
2023/12/10 04:16:07;;;;;;;;;51.50;41.50;;;;;0.79;100.00;99083.38;6310566;20;2855526;-43
2023/12/10 04:18:38;;;;;;;;;133.50;101.75;;;;;1.03;100.00;99092.28;6282504;20;3698556;-41
2023/12/10 04:21:08;;;;;;;;;90.00;66.33;;;;;1.00;100.00;99092.41;6309243;20;3654489;-40
2023/12/10 04:23:38;;;;;;;;;61.00;46.00;;;;;1.36;100.00;99093.88;6306476;20;2495201;-42
2023/12/10 04:26:07;;;;;;;;;60.00;46.00;;;;;1.47;100.00;99103.16;6281105;20;2873328;-42
2023/12/10 04:28:38;;;;;;;;;63.00;46.00;;;;;1.06;100.00;99102.75;6277988;20;2494065;-40
2023/12/10 04:31:07;;;;;;;;;59.00;42.50;;;;;1.59;100.00;99106.31;6280225;20;2879517;-42
2023/12/10 04:33:37;;;;;;;;;81.00;60.33;;;;;1.16;100.00;99103.34;6277409;20;3639873;-41
2023/12/10 04:36:07;;;;;;;;;73.67;50.00;;;;;1.43;100.00;99103.34;6313522;20;2879504;-41
2023/12/10 04:38:38;;;;;;;;;75.33;50.33;;;;;1.33;100.00;99099.25;6312235;20;2879543;-45
2023/12/10 04:41:08;;;;;;;;;67.67;46.67;;;;;1.35;100.00;99100.94;6312354;20;2860730;-41
2023/12/10 04:43:38;;;;;;;;;59.33;45.00;;;;;1.41;100.00;99103.38;6312798;20;2869035;-42
2023/12/10 04:46:07;;;;;;;;;62.50;41.00;;;;;1.17;100.00;99104.19;6312013;20;2861836;-41
2023/12/10 04:48:37;;;;;;;;;68.33;49.67;;;;;1.11;100.00;99105.25;6280992;20;2878537;-43
2023/12/10 04:51:07;;;;;;;;;70.67;54.33;;;;;1.12;100.00;99095.56;6313325;20;2875378;-42
2023/12/10 04:53:36;;;;;;;;;68.00;49.50;;;;;1.36;100.00;99091.22;6312783;20;2877390;-40
2023/12/10 04:56:06;;;;;;;;;65.33;49.00;;;;;1.23;100.00;99088.13;6278674;20;3622180;-41
2023/12/10 04:58:35;;;;;;;;;72.50;53.50;;;;;0.97;100.00;99092.47;6308850;20;2486772;-42
2023/12/10 05:01:05;;;;;;;;;62.00;44.00;;;;;1.42;100.00;99086.59;6278666;20;2883657;-40
2023/12/10 05:03:34;;;;;;;;;68.00;49.50;;;;;1.15;100.00;99082.22;6311801;20;2862749;-40
2023/12/10 05:06:03;;;;;;;;;62.33;44.33;;;;;1.53;100.00;99076.50;6280003;20;2872275;-43
2023/12/10 05:08:33;;;;;;;;;73.33;49.33;;;;;0.81;100.00;99081.53;6312979;20;2872138;-42
2023/12/10 05:11:03;;;;;;;;;66.50;45.50;;;;;0.72;100.00;99084.47;6309164;20;2872552;-42
2023/12/10 05:13:33;;;;;;;;;76.33;54.00;;;;;1.30;100.00;99079.94;6278118;20;2892103;-43
2023/12/10 05:16:03;;;;;;;;;70.67;44.67;;;;;1.13;100.00;99079.63;6308942;20;3640893;-40
2023/12/10 05:18:33;;;;;;;;;66.00;47.00;;;;;1.31;100.00;99078.16;6312666;20;2880602;-40
2023/12/10 05:21:01;;;;;;;;;63.50;50.00;;;;;1.14;100.00;99080.50;6305264;20;2498660;-40
2023/12/10 05:23:32;;;;;;;;;70.33;52.33;;;;;1.20;100.00;99082.94;6278997;20;2884733;-41
2023/12/10 05:26:00;;;;;;;;;70.50;49.50;;;;;1.07;100.00;99072.75;6305978;20;2494125;-41
2023/12/10 05:28:30;;;;;;;;;73.33;51.00;;;;;0.85;100.00;99077.03;6279842;20;2878723;-42
2023/12/10 05:30:59;;;;;;;;;71.50;49.50;;;;;1.01;100.00;99067.69;6308844;20;2880462;-42
2023/12/10 05:33:28;;;;;;;;;68.67;52.67;;;;;1.15;100.00;99069.00;6280020;20;3617986;-44
2023/12/10 05:35:59;;;;;;;;;69.50;47.50;;;;;1.17;100.00;99077.75;6311470;20;2871140;-41
2023/12/10 05:38:28;;;;;;;;;68.67;51.00;;;;;1.24;100.00;99077.50;6277555;20;2877590;-40
2023/12/10 05:40:58;;;;;;;;;85.67;60.33;;;;;1.40;100.00;99080.50;6308934;20;3657666;-43
2023/12/10 05:43:28;;;;;;;;;68.33;52.33;;;;;1.47;100.00;99082.00;6309078;20;3623180;-40
2023/12/10 05:45:57;;;;;;;;;72.00;52.50;;;;;1.42;100.00;99078.66;6311255;20;2878457;-40
2023/12/10 05:48:27;;;;;;;;;66.33;46.00;;;;;1.56;100.00;99085.25;6280590;20;2882794;-41
2023/12/10 05:50:56;;;;;;;;;64.50;51.00;;;;;1.32;100.00;99085.19;6305876;20;2497216;-41
2023/12/10 05:53:25;;;;;;;;;72.00;55.33;;;;;1.28;100.00;99078.25;6279225;20;2884655;-42
2023/12/10 05:55:54;;;;;;;;;64.00;52.00;;;;;1.60;100.00;99081.56;6312015;20;2864851;-41
2023/12/10 05:58:27;;;;;;;;;77.00;49.33;;;;;1.16;100.00;99068.97;6277348;20;3630493;-43
2023/12/10 06:00:56;;;;;;;;;75.33;54.33;;;;;1.30;100.00;99073.78;6308584;20;2891999;-40
2023/12/10 06:03:27;;;;;;;;;62.50;48.00;;;;;1.53;100.00;99076.50;6308433;20;2500375;-41
2023/12/10 06:05:55;;;;;;;;;61.00;45.00;;;;;1.34;100.00;99070.09;6277900;20;2486804;-41
2023/12/10 06:08:24;;;;;;;;;66.50;45.00;;;;;1.47;100.00;99076.69;6281136;20;2870057;-42
2023/12/10 06:10:54;;;;;;;;;72.33;50.00;;;;;1.49;100.00;99074.88;6276912;20;2878618;-40
2023/12/10 06:13:24;;;;;;;;;74.00;50.33;;;;;1.53;100.00;99081.81;6307833;20;3654397;-43
2023/12/10 06:15:56;;;;;;;;;67.67;53.33;;;;;1.36;100.00;99078.84;6309281;20;2873232;-40
2023/12/10 06:18:26;;;;;;;;;69.33;49.33;;;;;1.71;100.00;99068.81;6309858;20;3628373;-40
2023/12/10 06:20:56;;;;;;;;;68.00;51.67;;;;;1.26;100.00;99078.31;6309016;20;3629415;-41
2023/12/10 06:23:25;;;;;;;;;72.33;45.00;;;;;1.73;100.00;99078.44;6306964;20;2873469;-40
2023/12/10 06:25:57;;;;;;;;;63.00;45.33;;;;;1.66;100.00;99081.34;6309995;20;3629474;-48
2023/12/10 06:28:27;;;;;;;;;68.33;51.67;;;;;1.60;100.00;99076.28;6309697;20;3626426;-39
2023/12/10 06:30:58;;;;;;;;;72.00;52.00;;;;;1.36;100.00;99084.16;6304740;20;3637799;-41
2023/12/10 06:33:27;;;;;;;;;68.67;49.33;;;;;1.74;100.00;99095.22;6310073;20;2896308;-40
2023/12/10 06:35:57;;;;;;;;;68.00;45.33;;;;;1.74;100.00;99095.22;6315066;20;2874358;-40
2023/12/10 06:38:26;;;;;;;;;62.00;52.00;;;;;1.87;100.00;99107.09;6312102;20;2872179;-40
2023/12/10 06:40:56;;;;;;;;;73.67;53.67;;;;;1.50;100.00;99100.44;6282200;20;2882659;-41
2023/12/10 06:43:26;;;;;;;;;63.00;44.50;;;;;1.38;100.00;99098.19;6314890;20;2873225;-40
2023/12/10 06:45:58;;;;;;;;;72.33;53.00;;;;;1.80;100.00;99108.22;6282317;20;2896208;-40
2023/12/10 06:48:28;;;;;;;;;79.33;54.33;;;;;1.56;100.00;99098.50;6315450;20;3635815;-39
2023/12/10 06:50:58;;;;;;;;;69.67;51.67;;;;;1.70;100.00;99109.44;6312557;20;2898340;-40
2023/12/10 06:53:31;;;;;;;;;74.33;53.33;;;;;1.27;100.00;99102.97;6315760;20;3631507;-39
2023/12/10 06:56:00;;;;;;;;;64.50;49.50;;;;;1.82;100.00;99108.13;6315129;20;2875358;-39
2023/12/10 06:58:30;;;;;;;;;75.33;57.00;;;;;1.51;100.00;99115.38;6281841;20;2896196;-39
2023/12/10 07:01:01;;;;;;;;;76.00;57.00;;;;;1.33;100.00;99116.00;6311271;20;3643015;-40
2023/12/10 07:03:31;;;;;;;;;75.00;57.00;;;;;1.37;100.00;99122.91;6314589;20;3642985;-39
2023/12/10 07:06:03;;;;;;;;;69.00;53.00;;;;;1.12;100.00;99127.28;6314939;20;2876311;-40
2023/12/10 07:08:32;;;;;;;;;65.00;49.50;;;;;1.56;100.00;99128.44;6313774;20;2861863;-40
2023/12/10 07:11:04;;;;;;;;;70.00;50.50;;;;;1.73;100.00;99130.50;6279756;20;2874238;-40
2023/12/10 07:13:34;;;;;;;;;76.33;56.67;;;;;1.67;100.00;99128.09;6281191;20;2886717;-40
2023/12/10 07:16:04;;;;;;;;;78.00;59.00;;;;;1.38;100.00;99135.22;6312103;20;3628398;-40
2023/12/10 07:18:34;;;;;;;;;84.67;63.67;;;;;1.56;100.00;99132.88;6312366;20;3649298;-40
2023/12/10 07:21:04;;;;;;;;;69.00;57.50;;;;;1.54;100.00;99135.56;6309882;20;2869099;-39
2023/12/10 07:23:37;;;;;;;;;82.00;62.00;;;;;1.77;100.00;99133.94;6282255;20;3647220;-40
2023/12/10 07:26:07;;;;;;;;;85.33;62.00;;;;;1.56;100.00;99138.19;6312053;20;3659627;-39
2023/12/10 07:28:36;;;;;;;;;79.00;59.33;;;;;1.54;100.00;99131.13;6311424;20;3635059;-40
2023/12/10 07:31:07;;;;;;;;;77.33;57.00;;;;;1.61;100.00;99136.25;6311476;20;2892039;-39
2023/12/10 07:33:36;;;;;;;;;66.00;53.00;;;;;1.42;100.00;99134.22;6313079;20;2866954;-39
2023/12/10 07:36:04;;;;;;;;;57.50;45.00;;;;;1.68;100.00;99143.88;6281178;20;2489902;-40
2023/12/10 07:38:34;;;;;;;;;80.33;59.33;;;;;1.57;100.00;99140.75;6282734;20;3642826;-40
2023/12/10 07:41:05;;;;;;;;;73.67;57.67;;;;;1.44;100.00;99135.00;6312643;20;2874377;-40
2023/12/10 07:43:34;;;;;;;;;64.00;54.00;;;;;1.50;100.00;99148.03;6312341;20;2862835;-41
2023/12/10 07:46:04;;;;;;;;;79.67;54.67;;;;;1.57;100.00;99145.19;6279145;20;3639805;-40
2023/12/10 07:48:33;;;;;;;;;68.00;51.00;;;;;1.51;100.00;99152.41;6312241;20;2871101;-40
2023/12/10 07:51:04;;;;;;;;;73.67;56.67;;;;;1.40;100.00;99146.63;6280360;20;2888756;-40
2023/12/10 07:53:33;;;;;;;;;66.00;56.00;;;;;1.25;100.00;99153.25;6312575;20;2830459;-40
2023/12/10 07:56:03;;;;;;;;;82.33;54.67;;;;;1.39;100.00;99152.81;6282656;20;3664804;-40
2023/12/10 07:58:32;;;;;;;;;82.67;60.67;;;;;1.44;100.00;99150.88;6313450;20;3652330;-41
2023/12/10 08:01:03;;;;;;;;;76.67;55.33;;;;;1.48;100.00;99155.16;6310877;20;3643992;-41
2023/12/10 08:03:32;;;;;;;;;84.67;63.33;;;;;1.59;100.00;99157.44;6314149;20;3639864;-39
2023/12/10 08:06:03;;;;;;;;;93.00;69.67;;;;;1.52;100.00;99159.41;6313352;20;3640893;-40
2023/12/10 08:08:33;;;;;;;;;99.00;71.33;;;;;1.34;100.00;99157.38;6275923;20;3682552;-39
2023/12/10 08:11:05;;;;;;;;;91.00;68.00;;;;;1.19;100.00;99160.53;6278910;20;3649302;-39
2023/12/10 08:13:36;;;;;;;;;97.33;67.67;;;;;1.45;100.00;99154.38;6311244;20;3662760;-40
2023/12/10 08:16:06;;;;;;;;;80.67;62.33;;;;;1.43;100.00;99165.03;6312212;20;3636734;-39
2023/12/10 08:18:36;;;;;;;;;80.00;58.00;;;;;1.47;100.00;99163.13;6311385;20;3650283;-41
2023/12/10 08:21:08;;;;;;;;;77.67;55.00;;;;;1.64;100.00;99167.88;6313551;20;3641928;-40
2023/12/10 08:23:38;;;;;;;;;80.67;58.00;;;;;1.87;100.00;99169.72;6311822;20;3631491;-41
2023/12/10 08:26:08;;;;;;;;;73.00;53.33;;;;;1.61;100.00;99170.63;6313673;20;2879538;-39
2023/12/10 08:28:38;;;;;;;;;72.00;52.33;;;;;1.68;100.00;99170.34;6314432;20;3625452;-41
2023/12/10 08:31:07;;;;;;;;;71.00;57.67;;;;;1.99;100.00;99174.59;6313149;20;2872399;-39
2023/12/10 08:33:37;;;;;;;;;72.67;60.67;;;;;2.00;100.00;99186.03;6309996;20;2879439;-39
2023/12/10 08:36:08;;;;;;;;;78.00;58.00;;;;;2.09;100.00;99185.75;6313520;20;3646098;-40
2023/12/10 08:38:38;;;;;;;;;84.33;60.67;;;;;1.97;100.00;99181.72;6313451;20;3648322;-40
2023/12/10 08:41:08;;;;;;;;;80.33;58.33;;;;;2.04;100.00;99185.03;6313132;20;3649211;-40
2023/12/10 08:43:38;;;;;;;;;77.67;57.33;;;;;2.71;100.00;99179.91;6311634;20;3640847;-40
2023/12/10 08:46:09;;;;;;;;;87.33;63.00;;;;;2.97;100.00;99181.56;6312130;20;3653368;-42
2023/12/10 08:48:42;;;;;;;;;92.67;66.00;;;;;2.41;100.00;99187.22;6311569;20;3649441;-44
2023/12/10 08:51:12;;;;;;;;;80.33;61.00;;;;;2.06;100.00;99185.84;6313488;20;3634677;-40
2023/12/10 08:53:42;;;;;;;;;82.67;60.33;;;;;2.10;100.00;99192.75;6301734;20;3660703;-44
2023/12/10 08:56:11;;;;;;;;;83.33;60.67;;;;;2.06;100.00;99196.44;6275459;20;3636731;-41
2023/12/10 08:58:41;;;;;;;;;73.33;57.00;;;;;2.20;100.00;99202.97;6313154;20;3633795;-41
2023/12/10 09:01:11;;;;;;;;;73.00;57.67;;;;;2.49;100.00;99203.72;6314044;20;3639888;-41
2023/12/10 09:03:42;;;;;;;;;78.00;57.67;;;;;2.19;100.00;99193.31;6312309;20;3646198;-42
2023/12/10 09:06:13;;;;;;;;;80.33;60.67;;;;;2.49;100.00;99194.91;6308883;20;3636862;-42
2023/12/10 09:08:43;;;;;;;;;74.33;55.33;;;;;2.74;100.00;99194.84;6310482;20;3633700;-41
2023/12/10 09:11:13;;;;;;;;;76.00;56.67;;;;;2.63;100.00;99195.25;6311671;20;3640903;-42
2023/12/10 09:13:43;;;;;;;;;74.33;57.00;;;;;2.55;100.00;99189.38;6311420;20;3647133;-43
2023/12/10 09:16:14;;;;;;;;;72.67;57.33;;;;;2.75;100.00;99188.63;6309826;20;3632614;-41
2023/12/10 09:18:44;;;;;;;;;69.33;51.67;;;;;3.08;100.00;99187.34;6310074;20;3632515;-40
2023/12/10 09:21:14;;;;;;;;;66.67;52.67;;;;;2.44;100.00;99194.22;6308212;20;2882646;-41
2023/12/10 09:23:44;;;;;;;;;75.33;59.33;;;;;2.54;100.00;99190.31;6309561;20;2887839;-41
2023/12/10 09:26:14;;;;;;;;;86.00;65.33;;;;;2.98;100.00;99199.22;6302943;20;3636716;-40
2023/12/10 09:28:43;;;;;;;;;88.67;68.00;;;;;2.59;100.00;99186.56;6308607;20;3630485;-39
2023/12/10 09:31:13;;;;;;;;;107.33;84.33;;;;;2.88;100.00;99197.00;6307759;20;3687844;-40
2023/12/10 09:33:43;;;;;;;;;114.67;89.00;;;;;2.80;100.00;99200.78;6275785;20;3688788;-40
2023/12/10 09:36:17;;;;;;;;;140.50;113.00;;;;;2.95;100.00;99203.78;6280280;20;4485751;-40
2023/12/10 09:38:47;;;;;;;;;118.25;101.75;;;;;2.97;100.00;99196.63;6278268;20;3712766;-41
2023/12/10 09:41:17;;;;;;;;;99.67;80.00;;;;;2.81;100.00;99199.84;6279287;20;3694026;-44
2023/12/10 09:43:47;;;;;;;;;89.00;67.67;;;;;3.06;100.00;99196.28;6280160;20;3650337;-41
2023/12/10 09:46:17;;;;;;;;;85.67;66.67;;;;;2.78;100.00;99202.63;6311300;20;3641923;-41
2023/12/10 09:48:49;;;;;;;;;86.67;65.00;;;;;2.96;100.00;99200.22;6311135;20;3646116;-40
2023/12/10 09:51:19;;;;;;;;;83.67;62.33;;;;;2.55;100.00;99202.63;6311281;20;3665945;-42
2023/12/10 09:53:49;;;;;;;;;80.33;62.00;;;;;2.64;100.00;99208.44;6309019;20;3638893;-40
2023/12/10 09:56:19;;;;;;;;;84.67;62.00;;;;;2.64;100.00;99212.91;6312911;20;3655443;-40
2023/12/10 09:58:49;;;;;;;;;72.00;56.67;;;;;2.71;100.00;99205.56;6312258;20;3629450;-40
2023/12/10 10:01:18;;;;;;;;;74.33;56.67;;;;;2.52;100.00;99210.69;6307332;20;3623180;-41
2023/12/10 10:03:48;;;;;;;;;62.50;52.50;;;;;2.63;100.00;99221.75;6309353;20;2840967;-40
2023/12/10 10:06:18;;;;;;;;;76.00;60.00;;;;;2.70;100.00;99215.31;6279461;20;2881702;-39
2023/12/10 10:08:48;;;;;;;;;73.33;54.67;;;;;2.56;100.00;99212.31;6305982;20;3631559;-39
2023/12/10 10:11:18;;;;;;;;;76.00;58.00;;;;;2.82;100.00;99217.50;6308287;20;2879542;-40
2023/12/10 10:13:53;;;;;;;;;73.67;52.67;;;;;2.72;100.00;99212.63;6310728;20;3629404;-40
2023/12/10 10:16:21;;;;;;;;;52.50;34.00;;;;;2.56;100.00;99205.22;6305400;20;2831709;-40
2023/12/10 10:18:51;;;;;;;;;66.50;55.00;;;;;2.67;100.00;99215.44;6277998;20;2870094;-42
2023/12/10 10:21:22;;;;;;;;;79.00;58.67;;;;;2.64;100.00;99207.59;6276676;20;3639916;-41
2023/12/10 10:23:51;;;;;;;;;69.00;53.50;;;;;3.12;100.00;99203.13;6308272;20;2865927;-40
2023/12/10 10:26:21;;;;;;;;;72.33;57.00;;;;;3.05;100.00;99210.44;6278500;20;2879527;-40
2023/12/10 10:28:50;;;;;;;;;67.00;46.00;;;;;3.05;100.00;99216.66;6305193;20;3624220;-41
2023/12/10 10:31:20;;;;;;;;;67.00;49.00;;;;;3.04;100.00;99219.34;6308607;20;2883738;-41
2023/12/10 10:33:50;;;;;;;;;67.33;50.33;;;;;2.88;100.00;99221.72;6304299;20;2881564;-40
2023/12/10 10:36:21;;;;;;;;;61.33;49.00;;;;;2.80;100.00;99226.44;6301526;20;2863938;-41
2023/12/10 10:38:53;;;;;;;;;68.67;50.67;;;;;2.89;100.00;99226.09;6305189;20;3637811;-40
2023/12/10 10:41:22;;;;;;;;;57.00;47.00;;;;;2.85;100.00;99230.66;6308367;20;2845142;-40
2023/12/10 10:43:52;;;;;;;;;67.00;52.33;;;;;3.12;100.00;99227.88;6277541;20;2888013;-39
2023/12/10 10:46:22;;;;;;;;;68.00;52.33;;;;;3.26;100.00;99225.53;6309999;20;2876471;-40
2023/12/10 10:48:53;;;;;;;;;63.00;48.00;;;;;3.04;100.00;99233.47;6306446;20;3614874;-39
2023/12/10 10:51:27;;;;;;;;;113.00;95.33;;;;;3.08;100.00;99221.81;6307578;20;3695104;-39
2023/12/10 10:54:03;;;;;;;;;81.67;60.33;;;;;3.21;100.00;99221.31;6274298;20;3634700;-39
2023/12/10 10:56:34;;;;;;;;;105.67;77.00;;;;;3.48;100.00;99235.31;6303407;20;3696113;-39
2023/12/10 10:59:03;;;;;;;;;80.67;58.67;;;;;3.39;100.00;99235.66;6272747;20;3652395;-40
2023/12/10 11:01:40;;;;;;;;;71.67;56.00;;;;;3.51;100.00;99238.69;6270552;20;2871219;-42
2023/12/10 11:04:16;;;;;;;;;91.33;65.33;;;;;3.43;100.00;99232.84;6309713;20;3658627;-38
2023/12/10 11:06:53;;;;;;;;;67.33;51.67;;;;;3.30;100.00;99232.44;6309288;20;2881002;-40
2023/12/10 11:09:22;;;;;;;;;58.50;47.00;;;;;3.47;100.00;99234.44;6305292;20;2860816;-39
2023/12/10 11:11:52;;;;;;;;;63.67;50.67;;;;;3.36;100.00;99235.78;6273494;20;2868155;-40
2023/12/10 11:14:23;;;;;;;;;65.00;47.33;;;;;3.36;100.00;99235.78;6306684;20;2874404;-42